Medford, OR (97501)

23:33 PDT le 01 avril 2015 (GMT -0700)
Southwest Medford (CW2551) | | Change Station
CLOSE
Current Station
Stations météorologiques personnelles
Location: Medford, OR
Altitude: 1472 ft
Stations météo à proximité

Alt. 1472 ft 42.31 °N, 122.90 °W | Updated 9 seconds ago

Partiellement nuageux
Partiellement nuageux
42.8 ° F
Paraît 43 ° F
N
1.2
Vent Variable Vent de NO
Gusts 1.2 mph

Aujourd'hui
Haut(e) -- | Bas -- ° F
--% Risque de précip.
Hier
Haut(e) -- | Bas -- ° F
Precip. -- pouce
6:54 AM 7:37 PM
Lune gibbeuse croissante, 96% visible
Pression 30.34 pouce
Visibilité 10.0 Miles terrestres
Nuages Nuages épars 3800 ft
Nuages épars 8000 ft
Refroidissement éolien 43 ° F
Point de rosée 35 ° F
Humidité 73%
Précipitations 0.00 pouce
Profondeur de la couche neigeuse Non disponible.
UV 0.0 sur 12
Pollen 8.60 sur 12
Qualité de l'air Non disponible.
Flu Activity Non disponible.
METAR KMFR 020553Z AUTO 33004KT 10SM SCT038 SCT080 07/01 A3033 RMK AO2 SLP274 60000 T00720011 10139 20072 51020

More Conditions Fewer Conditions

Pression 30.34 pouce
Visibilité 10.0 Miles terrestres
Nuages Nuages épars 3800 ft
Nuages épars 8000 ft
Refroidissement éolien 43 ° F
Point de rosée 35 ° F
Humidité 73%
Précipitations 0.00 pouce
Profondeur de la couche neigeuse Non disponible.
UV 0.0 sur 12
Pollen 8.60 sur 12
Qualité de l'air Non disponible.
Flu Activity Non disponible.
METAR KMFR 020553Z AUTO 33004KT 10SM SCT038 SCT080 07/01 A3033 RMK AO2 SLP274 60000 T00720011 10139 20072 51020

More Conditions Fewer Conditions

10-Day Weather Forecast

Almanac

Astronomie

Apr. 01, 2015 Lever Coucher
Temps réel
Crépuscule civil
Crépuscule nautique
Crépuscule astronomique
Lune
Durée de lumière visible
Longueur du jour
Tomorrow will be .
, % of the Moon is Illuminated

Extrêmes aujourd'hui

State Highs State Lows

Community

WunderPhotos

Upload Photos

1,810,204 Photos téléchargées !

WunderBlogs® & News

Nearby

Qualité de l'air

  Qualité de l'air Indice de la qualité de l'air Polluant
Not available.

Épaisseur de neige

Station Depth Altitude

Activité sismique

Ville Distance Mag. Time & Date
Minimum magnitude displayed is 2.5.

Températures des eaux côtières

Lieu Température

Stations

Stations météo à proximité

Emplacement de la station Température Refroidissement éolien Point de rosée Humidité Vent Precip. Alt. Mise à jour Type